createdAt,value
2024-02-02T00:01:50.325Z,100773.78
2024-02-02T00:04:20.816Z,100778.28
2024-02-02T00:06:51.411Z,100769.66
2024-02-02T00:09:21.971Z,100774.84
2024-02-02T00:11:54.148Z,100766.94
2024-02-02T00:14:24.719Z,100766.31
2024-02-02T00:16:55.533Z,100773.13
2024-02-02T00:19:26.142Z,100758.94
2024-02-02T00:21:56.761Z,100754.81
2024-02-02T00:24:27.388Z,100734.53
2024-02-02T00:26:59.732Z,100769.13
2024-02-02T00:29:30.357Z,100775.31
2024-02-02T00:32:00.979Z,100775.56
2024-02-02T00:34:31.718Z,100781.94
2024-02-02T00:37:02.321Z,100774.53
2024-02-02T00:39:33.258Z,100761.63
2024-02-02T00:42:05.726Z,100773.59
2024-02-02T00:44:36.303Z,100773.56
2024-02-02T00:47:06.864Z,100782.69
2024-02-02T00:49:37.450Z,100783.66
2024-02-02T00:52:08.430Z,100781.63
2024-02-02T00:54:39.000Z,100773.06
2024-02-02T00:57:11.171Z,100776.63
2024-02-02T00:59:41.797Z,100773.94
2024-02-02T01:02:12.245Z,100778.31
2024-02-02T01:04:57.860Z,100772.41
2024-02-02T01:07:28.531Z,100769.38
2024-02-02T01:09:59.059Z,100773.16
2024-02-02T01:12:31.302Z,100761.59
2024-02-02T01:15:01.942Z,100768.31
2024-02-02T01:17:33.296Z,100766.69
2024-02-02T01:20:05.992Z,100762.38
2024-02-02T01:22:36.788Z,100757.34
2024-02-02T01:25:08.032Z,100755.94
2024-02-02T01:27:40.773Z,100743.50
2024-02-02T01:30:13.869Z,100754.06
2024-02-02T01:32:44.655Z,100760.88
2024-02-02T01:35:15.204Z,100749.69
2024-02-02T01:37:45.785Z,100751.91
2024-02-02T01:40:16.985Z,100757.47
2024-02-02T01:42:49.357Z,100742.56
2024-02-02T01:45:19.994Z,100744.13
2024-02-02T01:47:50.586Z,100737.13
2024-02-02T01:50:21.188Z,100730.53
2024-02-02T01:52:51.856Z,100733.03
2024-02-02T01:55:22.423Z,100729.94
2024-02-02T01:57:54.765Z,100729.06
2024-02-02T02:00:25.554Z,100713.31
2024-02-02T02:02:56.254Z,100722.69
2024-02-02T02:05:26.938Z,100707.91
2024-02-02T02:07:58.033Z,100712.00
2024-02-02T02:10:28.697Z,100712.56
2024-02-02T02:13:01.019Z,100704.81
2024-02-02T02:15:31.813Z,100703.91
2024-02-02T02:18:02.492Z,100701.47
2024-02-02T02:20:34.031Z,100667.50
2024-02-02T02:23:06.404Z,100681.63
2024-02-02T02:25:36.902Z,100682.03
2024-02-02T02:28:07.863Z,100687.06
2024-02-02T02:30:38.506Z,100684.88
2024-02-02T02:33:09.347Z,100687.22
2024-02-02T02:35:40.112Z,100677.81
2024-02-02T02:38:12.236Z,100627.25
2024-02-02T02:40:42.749Z,100672.88
2024-02-02T02:43:13.297Z,100673.59
2024-02-02T02:45:43.820Z,100679.13
2024-02-02T02:48:14.525Z,100675.06
2024-02-02T02:50:45.172Z,100683.03
2024-02-02T02:53:17.512Z,100672.91
2024-02-02T02:55:48.031Z,100677.81
2024-02-02T02:58:18.616Z,100673.06
2024-02-02T03:00:49.472Z,100674.78
2024-02-02T03:03:20.105Z,100678.53
2024-02-02T03:05:50.833Z,100670.00
2024-02-02T03:08:23.090Z,100664.78
2024-02-02T03:10:53.569Z,100667.31
2024-02-02T03:13:24.114Z,100665.44
2024-02-02T03:15:54.656Z,100656.47
2024-02-02T03:18:25.496Z,100656.75
2024-02-02T03:20:56.179Z,100659.19
2024-02-02T03:23:28.479Z,100650.16
2024-02-02T03:25:59.091Z,100654.47
2024-02-02T03:28:29.661Z,100652.97
2024-02-02T03:31:00.271Z,100665.03
2024-02-02T03:33:30.931Z,100645.16
2024-02-02T03:36:01.627Z,100657.72
2024-02-02T03:38:33.821Z,100654.19
2024-02-02T03:41:04.372Z,100641.38
2024-02-02T03:43:34.882Z,100633.63
2024-02-02T03:46:05.443Z,100629.75
2024-02-02T03:48:36.109Z,100634.41
2024-02-02T03:51:06.935Z,100639.63
2024-02-02T03:53:39.148Z,100639.16
2024-02-02T03:56:09.934Z,100633.91
2024-02-02T03:58:40.404Z,100631.63
2024-02-02T04:01:10.942Z,100630.50
2024-02-02T04:03:41.602Z,100631.63
2024-02-02T04:06:12.218Z,100633.66
2024-02-02T04:08:44.528Z,100633.38
2024-02-02T04:11:15.164Z,100638.41
2024-02-02T04:13:45.737Z,100639.41
2024-02-02T04:16:16.279Z,100643.03
2024-02-02T04:18:46.903Z,100638.91
2024-02-02T04:21:17.515Z,100639.41
2024-02-02T04:23:49.906Z,100641.44
2024-02-02T04:26:20.500Z,100635.63
2024-02-02T04:28:51.319Z,100632.09
2024-02-02T04:31:21.879Z,100629.59
2024-02-02T04:33:52.661Z,100617.78
2024-02-02T04:36:23.308Z,100622.81
2024-02-02T04:38:55.524Z,100625.09
2024-02-02T04:41:26.145Z,100627.31
2024-02-02T04:43:56.718Z,100613.00
2024-02-02T04:46:27.907Z,100643.44
2024-02-02T04:48:58.732Z,100632.63
2024-02-02T04:51:29.467Z,100638.00
2024-02-02T04:54:01.758Z,100639.16
2024-02-02T04:56:32.337Z,100638.38
2024-02-02T04:59:02.925Z,100641.13
2024-02-02T05:01:33.518Z,100636.34
2024-02-02T05:04:04.106Z,100626.78
2024-02-02T05:06:34.844Z,100643.38
2024-02-02T05:09:07.469Z,100647.34
2024-02-02T05:11:38.002Z,100633.69
2024-02-02T05:14:08.860Z,100656.84
2024-02-02T05:16:39.469Z,100646.81
2024-02-02T05:19:10.147Z,100591.22
2024-02-02T05:21:40.848Z,100652.66
2024-02-02T05:24:26.212Z,100639.41
2024-02-02T05:27:03.834Z,100644.19
2024-02-02T05:29:34.878Z,100636.72
2024-02-02T05:32:05.426Z,100652.47
2024-02-02T05:34:36.186Z,100651.22
2024-02-02T05:37:06.927Z,100655.22
2024-02-02T05:39:39.126Z,100656.22
2024-02-02T05:42:10.151Z,100600.69
2024-02-02T05:44:40.673Z,100665.00
2024-02-02T05:47:11.186Z,100661.50
2024-02-02T05:49:41.971Z,100653.97
2024-02-02T05:52:12.837Z,100652.75
2024-02-02T05:54:45.102Z,100657.50
2024-02-02T05:57:15.689Z,100650.22
2024-02-02T05:59:46.246Z,100652.00
2024-02-02T06:02:16.785Z,100655.03
2024-02-02T06:04:47.386Z,100659.78
2024-02-02T06:07:18.208Z,100663.06
2024-02-02T06:09:50.613Z,100657.50
2024-02-02T06:12:21.223Z,100667.84
2024-02-02T06:14:51.924Z,100669.59
2024-02-02T06:17:22.474Z,100672.56
2024-02-02T06:19:53.166Z,100666.81
2024-02-02T06:22:23.875Z,100667.56
2024-02-02T06:24:56.119Z,100665.81
2024-02-02T06:27:27.361Z,100665.28
2024-02-02T06:29:57.957Z,100660.44
2024-02-02T06:32:28.532Z,100666.47
2024-02-02T06:35:01.060Z,100670.69
2024-02-02T06:37:31.948Z,100670.34
2024-02-02T06:40:06.001Z,100666.19
2024-02-02T06:42:36.626Z,100664.00
2024-02-02T06:45:07.887Z,100665.03
2024-02-02T06:47:39.338Z,100673.34
2024-02-02T06:50:10.436Z,100679.59
2024-02-02T06:52:41.011Z,100675.78
2024-02-02T06:55:13.667Z,100680.34
2024-02-02T06:57:45.959Z,100685.53
2024-02-02T07:00:19.529Z,100691.47
2024-02-02T07:02:50.879Z,100689.72
2024-02-02T07:05:22.121Z,100690.91
2024-02-02T07:07:53.611Z,100681.91
2024-02-02T07:10:25.835Z,100691.34
2024-02-02T07:13:03.755Z,100691.66
2024-02-02T07:15:40.420Z,100691.88
2024-02-02T07:18:36.325Z,100702.25
2024-02-02T07:21:08.962Z,100638.84
2024-02-02T07:23:41.551Z,100552.38
2024-02-02T07:26:30.272Z,100698.00
2024-02-02T07:29:02.449Z,100707.72
2024-02-02T07:31:40.370Z,100705.97
2024-02-02T07:34:42.167Z,100665.91
2024-02-02T07:37:14.617Z,100726.88
2024-02-02T07:39:45.157Z,100733.59
2024-02-02T07:42:17.355Z,100740.63
2024-02-02T07:44:47.962Z,100740.16
2024-02-02T07:47:18.502Z,100740.56
2024-02-02T07:49:49.092Z,100748.78
2024-02-02T07:52:19.642Z,100760.56
2024-02-02T07:54:50.157Z,100763.38
2024-02-02T07:57:22.285Z,100756.34
2024-02-02T07:59:52.928Z,100771.34
2024-02-02T08:02:24.686Z,100768.09
2024-02-02T08:04:55.358Z,100735.72
2024-02-02T08:07:26.163Z,100776.00
2024-02-02T08:09:56.752Z,100768.19
2024-02-02T08:12:29.086Z,100760.50
2024-02-02T08:14:59.718Z,100780.28
2024-02-02T08:17:30.357Z,100779.06
2024-02-02T08:20:01.060Z,100775.47
2024-02-02T08:22:31.672Z,100796.88
2024-02-02T08:25:02.201Z,100797.00
2024-02-02T08:27:34.350Z,100797.47
2024-02-02T08:30:05.266Z,100806.13
2024-02-02T08:32:36.069Z,100820.41
2024-02-02T08:35:06.971Z,100818.84
2024-02-02T08:37:37.930Z,100835.28
2024-02-02T08:40:24.430Z,100842.63
2024-02-02T08:42:56.659Z,100838.09
2024-02-02T08:46:15.364Z,100836.25
2024-02-02T08:48:48.373Z,100843.28
2024-02-02T08:51:54.769Z,100847.47
2024-02-02T08:54:49.919Z,100815.72
2024-02-02T08:58:00.839Z,100848.16
2024-02-02T09:00:46.064Z,100855.22
2024-02-02T09:03:29.359Z,100857.59
2024-02-02T09:06:01.339Z,100740.94
2024-02-02T09:08:39.853Z,100847.88
2024-02-02T09:11:26.158Z,100848.19
2024-02-02T09:14:06.215Z,100788.38
2024-02-02T09:16:46.413Z,100840.22
2024-02-02T09:19:34.836Z,100852.31
2024-02-02T09:22:11.633Z,100842.31
2024-02-02T09:24:46.346Z,100847.03
2024-02-02T09:27:19.003Z,100856.72
2024-02-02T09:29:51.527Z,100851.72
2024-02-02T09:32:24.165Z,100861.72
2024-02-02T09:34:55.351Z,100866.72
2024-02-02T09:37:35.394Z,100857.59
2024-02-02T09:40:15.998Z,100876.75
2024-02-02T09:43:08.341Z,100871.44
2024-02-02T09:45:58.464Z,100883.78
2024-02-02T09:48:48.066Z,100867.31
2024-02-02T09:51:31.047Z,100871.69
2024-02-02T09:54:25.336Z,100857.78
2024-02-02T09:57:06.291Z,100888.44
2024-02-02T09:59:52.841Z,100879.88
2024-02-02T10:02:56.522Z,100865.09
2024-02-02T10:05:40.965Z,100885.75
2024-02-02T10:08:25.878Z,100881.47
2024-02-02T10:11:15.451Z,100882.50
2024-02-02T10:14:02.083Z,100886.91
2024-02-02T10:16:42.307Z,100890.00
2024-02-02T10:19:35.654Z,100895.31
2024-02-02T10:22:22.354Z,100899.91
2024-02-02T10:25:15.648Z,100896.13
2024-02-02T10:28:03.143Z,100896.72
2024-02-02T10:30:47.392Z,100895.88
2024-02-02T10:33:41.221Z,100906.75
2024-02-02T10:36:21.767Z,100913.50
2024-02-02T10:39:14.350Z,100923.75
2024-02-02T10:42:00.933Z,100919.72
2024-02-02T10:44:42.287Z,100924.53
2024-02-02T10:47:25.838Z,100922.91
2024-02-02T10:50:09.724Z,100922.78
2024-02-02T10:52:50.079Z,100935.44
2024-02-02T10:55:38.892Z,100931.00
2024-02-02T10:58:24.959Z,100938.47
2024-02-02T11:01:06.963Z,100931.66
2024-02-02T11:03:43.170Z,100938.69
2024-02-02T11:06:24.913Z,100931.50
2024-02-02T11:09:00.409Z,100930.53
2024-02-02T11:11:37.610Z,100938.44
2024-02-02T11:14:19.041Z,100936.97
2024-02-02T11:17:02.845Z,100922.97
2024-02-02T11:19:49.204Z,100923.94
2024-02-02T11:22:29.336Z,100920.69
2024-02-02T11:25:17.926Z,100932.31
2024-02-02T11:28:01.113Z,100933.94
2024-02-02T11:30:46.891Z,100936.22
2024-02-02T11:33:30.808Z,100939.84
2024-02-02T11:36:14.306Z,100927.03
2024-02-02T11:38:59.153Z,100864.75
2024-02-02T11:41:34.301Z,100908.31
2024-02-02T11:44:06.737Z,100929.28
2024-02-02T11:46:39.167Z,100925.91
2024-02-02T11:49:13.719Z,100923.94
2024-02-02T11:51:56.180Z,100926.97
2024-02-02T11:54:34.969Z,100937.50
2024-02-02T11:57:08.226Z,100887.34
2024-02-02T11:59:45.444Z,100934.97
2024-02-02T12:02:36.865Z,100945.81
2024-02-02T12:05:17.357Z,100927.03
2024-02-02T12:07:56.619Z,100934.97
2024-02-02T12:10:30.904Z,100913.19
2024-02-02T12:13:06.375Z,100942.50
2024-02-02T12:15:38.835Z,100951.91
2024-02-02T12:18:10.610Z,100948.13
2024-02-02T12:20:42.096Z,100959.56
2024-02-02T12:23:12.746Z,100952.69
2024-02-02T12:25:43.522Z,100937.59
2024-02-02T12:28:14.403Z,100960.66
2024-02-02T12:30:46.590Z,100956.69
2024-02-02T12:33:17.309Z,100952.78
2024-02-02T12:35:49.936Z,100941.75
2024-02-02T12:38:25.186Z,100950.88
2024-02-02T12:40:55.830Z,100933.91
2024-02-02T12:43:31.035Z,100950.88
2024-02-02T12:46:03.239Z,100949.50
2024-02-02T12:48:34.014Z,100947.78
2024-02-02T12:51:04.664Z,100953.50
2024-02-02T12:53:35.202Z,100952.44
2024-02-02T12:56:05.791Z,100963.69
2024-02-02T12:58:36.572Z,100956.09
2024-02-02T13:01:09.200Z,100957.38
2024-02-02T13:03:44.296Z,100963.38
2024-02-02T13:06:16.329Z,100962.06
2024-02-02T13:08:48.367Z,100973.91
2024-02-02T13:11:25.877Z,100969.97
2024-02-02T13:14:07.025Z,100977.06
2024-02-02T13:16:39.927Z,100865.00
2024-02-02T13:19:34.529Z,100984.84
2024-02-02T13:22:05.190Z,100986.94
2024-02-02T13:24:47.005Z,100980.31
2024-02-02T13:27:21.890Z,100997.06
2024-02-02T13:29:54.537Z,100935.19
2024-02-02T13:32:29.155Z,100997.38
2024-02-02T13:35:02.610Z,101005.78
2024-02-02T13:37:38.450Z,101003.94
2024-02-02T13:40:11.703Z,101014.41
2024-02-02T13:42:43.442Z,101021.75
2024-02-02T13:45:17.257Z,101024.34
2024-02-02T13:48:02.056Z,101029.16
2024-02-02T13:50:42.428Z,100853.03
2024-02-02T13:53:12.927Z,101001.75
2024-02-02T13:55:43.773Z,101025.34
2024-02-02T13:58:15.522Z,101031.38
2024-02-02T14:00:47.316Z,101031.22
2024-02-02T14:03:23.323Z,101037.66
2024-02-02T14:05:53.795Z,101026.44
2024-02-02T14:08:24.317Z,101031.38
2024-02-02T14:10:54.837Z,101029.22
2024-02-02T14:13:25.441Z,101034.28
2024-02-02T14:15:57.351Z,101040.38
2024-02-02T14:18:31.139Z,101034.72
2024-02-02T14:21:11.913Z,101034.94
2024-02-02T14:23:42.482Z,101028.38
2024-02-02T14:26:13.350Z,101036.28
2024-02-02T14:28:44.182Z,101037.47
2024-02-02T14:31:14.748Z,101040.41
2024-02-02T14:33:46.898Z,101040.63
2024-02-02T14:36:17.550Z,101050.63
2024-02-02T14:38:49.430Z,101049.25
2024-02-02T14:41:20.226Z,101042.56
2024-02-02T14:43:50.721Z,101052.31
2024-02-02T14:46:22.989Z,101056.44
2024-02-02T14:48:55.177Z,101061.81
2024-02-02T14:51:25.625Z,101062.88
2024-02-02T14:53:56.180Z,101061.88
2024-02-02T14:56:26.894Z,101054.41
2024-02-02T14:59:03.289Z,101062.25
2024-02-02T15:01:33.921Z,101062.59
2024-02-02T15:04:06.226Z,101056.16
2024-02-02T15:06:38.744Z,101027.38
2024-02-02T15:09:14.751Z,101061.84
2024-02-02T15:11:46.238Z,101040.19
2024-02-02T15:14:17.150Z,101071.28
2024-02-02T15:16:47.722Z,101054.78
2024-02-02T15:19:20.097Z,101077.69
2024-02-02T15:21:53.464Z,101068.28
2024-02-02T15:24:24.234Z,101069.34
2024-02-02T15:26:54.773Z,101076.47
2024-02-02T15:29:25.810Z,101082.13
2024-02-02T15:31:56.216Z,101064.69
2024-02-02T15:34:28.849Z,100963.06
2024-02-02T15:36:59.661Z,101072.69
2024-02-02T15:39:37.454Z,101082.13
2024-02-02T15:42:09.639Z,101076.06
2024-02-02T15:44:40.978Z,101089.19
2024-02-02T15:47:11.560Z,101099.53
2024-02-02T15:49:44.155Z,101094.38
2024-02-02T15:52:14.794Z,101099.56
2024-02-02T15:54:46.092Z,101096.34
2024-02-02T15:57:17.035Z,101095.66
2024-02-02T15:59:47.595Z,101107.00
2024-02-02T16:02:18.207Z,101109.84
2024-02-02T16:04:50.412Z,101113.38
2024-02-02T16:07:21.146Z,101110.56
2024-02-02T16:09:51.706Z,101118.59
2024-02-02T16:12:22.270Z,101120.00
2024-02-02T16:14:52.857Z,101124.06
2024-02-02T16:17:23.389Z,101118.38
2024-02-02T16:19:56.673Z,101123.72
2024-02-02T16:22:27.470Z,101125.84
2024-02-02T16:24:58.005Z,101130.47
2024-02-02T16:27:28.524Z,101131.53
2024-02-02T16:29:59.322Z,101134.38
2024-02-02T16:32:29.915Z,101148.56
2024-02-02T16:35:05.118Z,101153.56
2024-02-02T16:37:35.657Z,101155.69
2024-02-02T16:40:06.290Z,101151.75
2024-02-02T16:42:36.970Z,101156.16
2024-02-02T16:45:08.664Z,101163.84
2024-02-02T16:47:39.511Z,101156.41
2024-02-02T16:50:12.463Z,101162.81
2024-02-02T16:52:43.499Z,101169.19
2024-02-02T16:55:14.053Z,101169.38
2024-02-02T16:57:44.669Z,101165.28
2024-02-02T17:00:16.086Z,101172.88
2024-02-02T17:02:47.080Z,101186.53
2024-02-02T17:05:19.345Z,101183.78
2024-02-02T17:07:50.166Z,101178.53
2024-02-02T17:10:20.730Z,101184.84
2024-02-02T17:12:51.307Z,101186.13
2024-02-02T17:15:21.984Z,101178.13
2024-02-02T17:17:52.635Z,101172.34
2024-02-02T17:20:26.973Z,101185.88
2024-02-02T17:22:57.590Z,101179.22
2024-02-02T17:25:28.157Z,101179.88
2024-02-02T17:27:58.705Z,101185.00
2024-02-02T17:30:29.237Z,101201.69
2024-02-02T17:33:00.095Z,101133.41
2024-02-02T17:35:37.961Z,101188.00
2024-02-02T17:38:16.082Z,101199.53
2024-02-02T17:40:48.136Z,101200.84
2024-02-02T17:43:19.016Z,101198.72
2024-02-02T17:45:49.958Z,101192.03
2024-02-02T17:48:20.769Z,101186.88
2024-02-02T17:50:53.310Z,101190.41
2024-02-02T17:53:23.822Z,101190.75
2024-02-02T17:55:54.290Z,101136.88
2024-02-02T17:58:24.754Z,101194.03
2024-02-02T18:00:55.273Z,101198.47
2024-02-02T18:03:26.082Z,101208.81
2024-02-02T18:05:58.239Z,101201.38
2024-02-02T18:08:30.327Z,101195.06
2024-02-02T18:11:00.973Z,101185.16
2024-02-02T18:13:31.544Z,101187.81
2024-02-02T18:16:02.072Z,101178.88
2024-02-02T18:18:32.784Z,101184.75
2024-02-02T18:21:04.952Z,101185.06
2024-02-02T18:23:36.673Z,101188.16
2024-02-02T18:26:07.639Z,101184.94
2024-02-02T18:28:38.528Z,101188.03
2024-02-02T18:31:09.100Z,101195.25
2024-02-02T18:33:40.671Z,101186.53
2024-02-02T18:36:13.166Z,101197.50
2024-02-02T18:38:43.739Z,101196.38
2024-02-02T18:41:14.177Z,101198.22
2024-02-02T18:43:44.642Z,101192.88
2024-02-02T18:46:15.087Z,101198.28
2024-02-02T18:48:45.646Z,101202.81
2024-02-02T18:51:20.888Z,101204.13
2024-02-02T18:53:51.550Z,101210.81
2024-02-02T18:56:21.999Z,101214.63
2024-02-02T18:58:52.573Z,101191.88
2024-02-02T19:01:27.045Z,101215.88
2024-02-02T19:03:57.758Z,101201.69
2024-02-02T19:06:29.999Z,101199.34
2024-02-02T19:09:00.603Z,101201.38
2024-02-02T19:11:31.182Z,101196.38
2024-02-02T19:14:01.786Z,101207.59
2024-02-02T19:16:32.383Z,101208.91
2024-02-02T19:19:02.877Z,101207.13
2024-02-02T19:21:36.373Z,101211.88
2024-02-02T19:24:07.686Z,101218.50
2024-02-02T19:26:38.306Z,101216.13
2024-02-02T19:29:08.893Z,101219.13
2024-02-02T19:31:40.971Z,101176.06
2024-02-02T19:34:11.755Z,101216.66
2024-02-02T19:36:43.934Z,101226.09
2024-02-02T19:39:14.621Z,101224.47
2024-02-02T19:41:45.629Z,101228.25
2024-02-02T19:44:16.118Z,101230.09
2024-02-02T19:46:46.662Z,101229.28
2024-02-02T19:49:17.424Z,101225.50
2024-02-02T19:51:49.931Z,101229.19
2024-02-02T19:54:20.749Z,101230.78
2024-02-02T19:56:51.220Z,101238.16
2024-02-02T19:59:21.764Z,101232.50
2024-02-02T20:01:52.324Z,101227.97
2024-02-02T20:04:22.911Z,101226.03
2024-02-02T20:06:55.050Z,101232.88
2024-02-02T20:09:25.770Z,101230.13
2024-02-02T20:11:56.896Z,101253.75
2024-02-02T20:14:27.464Z,101222.50
2024-02-02T20:16:57.919Z,101232.88
2024-02-02T20:19:28.570Z,101236.22
2024-02-02T20:22:00.835Z,101243.16
2024-02-02T20:24:31.324Z,101241.00
2024-02-02T20:27:01.907Z,101196.84
2024-02-02T20:29:32.500Z,101255.34
2024-02-02T20:32:04.503Z,101242.06
2024-02-02T20:34:35.547Z,101249.19
2024-02-02T20:37:08.050Z,101256.97
2024-02-02T20:39:40.336Z,101243.84
2024-02-02T20:42:11.173Z,101249.53
2024-02-02T20:44:44.859Z,101245.91
2024-02-02T20:47:15.835Z,101250.16
2024-02-02T20:49:48.308Z,101249.75
2024-02-02T20:52:21.464Z,101264.53
2024-02-02T20:54:52.213Z,101252.06
2024-02-02T20:57:22.765Z,101258.84
2024-02-02T20:59:55.105Z,101262.84
2024-02-02T21:02:25.688Z,101236.47
2024-02-02T21:04:56.225Z,101255.06
2024-02-02T21:07:28.491Z,101261.16
2024-02-02T21:09:59.080Z,101273.59
2024-02-02T21:12:31.198Z,101256.13
2024-02-02T21:15:01.926Z,101265.34
2024-02-02T21:17:34.006Z,101266.50
2024-02-02T21:20:05.034Z,101259.28
2024-02-02T21:22:39.596Z,101261.00
2024-02-02T21:25:11.203Z,101264.22
2024-02-02T21:27:41.698Z,101254.34
2024-02-02T21:30:13.077Z,101263.28
2024-02-02T21:32:43.731Z,101242.16
2024-02-02T21:35:14.556Z,101210.94
2024-02-02T21:37:46.781Z,101262.50
2024-02-02T21:40:17.371Z,101259.59
2024-02-02T21:42:47.875Z,101270.00
2024-02-02T21:45:18.605Z,101270.72
2024-02-02T21:47:49.361Z,101274.63
2024-02-02T21:50:20.522Z,101266.88
2024-02-02T21:52:52.876Z,101277.78
2024-02-02T21:55:23.326Z,101281.88
2024-02-02T21:57:53.915Z,101291.97
2024-02-02T22:00:24.972Z,101286.56
2024-02-02T22:02:55.480Z,101288.34
2024-02-02T22:05:26.950Z,101290.78
2024-02-02T22:07:59.112Z,101289.59
2024-02-02T22:10:29.567Z,101289.16
2024-02-02T22:13:00.145Z,101287.28
2024-02-02T22:15:30.713Z,101286.34
2024-02-02T22:18:01.277Z,101287.03
2024-02-02T22:20:31.824Z,101295.31
2024-02-02T22:23:04.005Z,101292.03
2024-02-02T22:25:34.420Z,101272.91
2024-02-02T22:28:07.253Z,101285.06
2024-02-02T22:30:38.140Z,101291.00
2024-02-02T22:33:09.022Z,101285.69
2024-02-02T22:35:39.474Z,101283.50
2024-02-02T22:38:11.651Z,101259.66
2024-02-02T22:40:42.070Z,101275.41
2024-02-02T22:43:12.588Z,101287.13
2024-02-02T22:45:43.528Z,101290.22
2024-02-02T22:48:14.180Z,101285.47
2024-02-02T22:50:44.639Z,101280.84
2024-02-02T22:53:16.764Z,101282.81
2024-02-02T22:55:47.213Z,101279.56
2024-02-02T22:58:17.929Z,101298.53
2024-02-02T23:00:49.874Z,101292.56
2024-02-02T23:03:20.468Z,101283.50
2024-02-02T23:05:51.488Z,101283.53
2024-02-02T23:08:23.666Z,101281.25
2024-02-02T23:10:54.284Z,101264.19
2024-02-02T23:13:25.153Z,101269.81
2024-02-02T23:15:57.774Z,101277.31
2024-02-02T23:18:28.449Z,101277.84
2024-02-02T23:21:05.795Z,101281.59
2024-02-02T23:23:38.509Z,101272.00
2024-02-02T23:26:09.280Z,101119.41
2024-02-02T23:28:40.969Z,101270.38
2024-02-02T23:31:11.449Z,101274.66
2024-02-02T23:33:43.691Z,101277.16
2024-02-02T23:36:14.867Z,101269.00
2024-02-02T23:38:47.255Z,101258.31
2024-02-02T23:41:19.080Z,101256.75
2024-02-02T23:43:49.567Z,101258.84
2024-02-02T23:46:20.142Z,101252.09
2024-02-02T23:48:51.468Z,101236.16
2024-02-02T23:51:22.033Z,101247.72
2024-02-02T23:53:54.158Z,101239.63
2024-02-02T23:56:24.813Z,101241.72
2024-02-02T23:58:55.336Z,101227.69
